createdAt,value
2022-10-02T00:04:56.967Z,2.4
2022-10-02T00:10:44.130Z,2.7
2022-10-02T00:16:31.654Z,2.4
2022-10-02T00:22:26.607Z,2.3
2022-10-02T00:28:16.057Z,2.3
2022-10-02T00:34:05.704Z,1.9
2022-10-02T00:39:56.430Z,1.9
2022-10-02T00:45:51.462Z,2
2022-10-02T00:51:42.786Z,2.2
2022-10-02T00:57:32.208Z,2.2
2022-10-02T01:03:19.620Z,2
2022-10-02T01:09:02.882Z,2.5
2022-10-02T01:14:45.972Z,2.1
2022-10-02T01:20:31.365Z,2.1
2022-10-02T01:26:15.000Z,2.4
2022-10-02T01:31:58.412Z,2.3
2022-10-02T01:37:44.409Z,2.3
2022-10-02T01:43:29.060Z,2.2
2022-10-02T01:49:21.013Z,2.5
2022-10-02T01:55:11.299Z,2.3
2022-10-02T02:01:02.688Z,2.3
2022-10-02T02:06:50.110Z,2
2022-10-02T02:12:38.568Z,2
2022-10-02T02:18:25.615Z,2.2
2022-10-02T02:24:11.727Z,2.1
2022-10-02T02:29:57.450Z,2
2022-10-02T02:35:42.938Z,2.3
2022-10-02T02:41:28.112Z,1.9
2022-10-02T02:47:13.780Z,1.8
2022-10-02T02:53:00.946Z,1.7
2022-10-02T02:58:48.018Z,1.9
2022-10-02T03:04:31.211Z,2.1
2022-10-02T03:10:17.531Z,1.7
2022-10-02T03:16:05.903Z,2
2022-10-02T03:21:54.737Z,2.1
2022-10-02T03:27:40.711Z,1.7
2022-10-02T03:33:25.170Z,2
2022-10-02T03:39:26.523Z,1.9
2022-10-02T03:45:09.639Z,1.8
2022-10-02T03:50:53.031Z,1.5
2022-10-02T03:56:40.836Z,2.4
2022-10-02T04:02:28.598Z,1.4
2022-10-02T04:08:16.895Z,1.5
2022-10-02T04:14:03.733Z,1.7
2022-10-02T04:19:49.330Z,1.5
2022-10-02T04:25:35.822Z,2.1
2022-10-02T04:31:19.500Z,1.8
2022-10-02T04:37:11.248Z,1.5
2022-10-02T04:43:01.161Z,1.9
2022-10-02T04:48:50.021Z,1.8
2022-10-02T04:54:45.674Z,1.7
2022-10-02T05:00:32.846Z,1.5
2022-10-02T05:06:23.574Z,1.5
2022-10-02T05:12:27.030Z,1.4
2022-10-02T05:18:21.248Z,1.7
2022-10-02T05:24:11.070Z,1.7
2022-10-02T05:30:08.014Z,1.6
2022-10-02T05:36:01.551Z,1.2
2022-10-02T05:41:54.862Z,1.4
2022-10-02T05:47:40.616Z,1.5
2022-10-02T05:53:27.195Z,1.3
2022-10-02T05:59:14.503Z,1.5
2022-10-02T06:05:02.691Z,1.6
2022-10-02T06:10:48.502Z,1.4
2022-10-02T06:16:37.100Z,1.5
2022-10-02T06:22:22.383Z,1.3
2022-10-02T06:28:11.249Z,1.2
2022-10-02T06:33:54.814Z,1.2
2022-10-02T06:39:44.696Z,1.4
2022-10-02T06:45:33.321Z,1.4
2022-10-02T06:51:21.652Z,1.4
2022-10-02T06:57:16.069Z,1.3
2022-10-02T07:03:16.303Z,1.7
2022-10-02T07:09:11.018Z,1.4
2022-10-02T07:15:01.814Z,1.2
2022-10-02T07:20:48.903Z,2
2022-10-02T07:26:43.355Z,1.5
2022-10-02T07:32:33.659Z,1.3
2022-10-02T07:38:30.253Z,1.2
2022-10-02T07:44:22.788Z,1.7
2022-10-02T07:50:11.027Z,1.4
2022-10-02T07:55:55.186Z,1.3
2022-10-02T08:01:40.542Z,1.3
2022-10-02T08:07:23.919Z,1.4
2022-10-02T08:13:11.826Z,1.3
2022-10-02T08:18:57.091Z,1.6
2022-10-02T08:24:44.728Z,1.4
2022-10-02T08:30:27.986Z,1.5
2022-10-02T08:36:22.339Z,1.1
2022-10-02T08:42:20.388Z,1.3
2022-10-02T08:48:14.831Z,1.2
2022-10-02T08:54:17.103Z,1.3
2022-10-02T09:00:07.326Z,1.2
2022-10-02T09:06:09.886Z,1
2022-10-02T09:12:05.006Z,1.1
2022-10-02T09:17:56.604Z,1.1
2022-10-02T09:23:52.137Z,0.9
2022-10-02T09:29:58.423Z,1.3
2022-10-02T09:35:53.588Z,1.1
2022-10-02T09:41:47.845Z,1.2
2022-10-02T09:47:41.031Z,1.4
2022-10-02T09:53:44.451Z,1.3
2022-10-02T09:59:48.725Z,1.2
2022-10-02T10:05:43.541Z,1.4
2022-10-02T10:11:46.922Z,1.1
2022-10-02T10:17:39.999Z,1.2
2022-10-02T10:23:37.127Z,1.1
2022-10-02T10:29:31.426Z,1.2
2022-10-02T10:35:24.746Z,1.3
2022-10-02T10:41:15.583Z,1.2
2022-10-02T10:47:07.217Z,1.1
2022-10-02T10:53:02.346Z,1
2022-10-02T10:58:52.733Z,1.2
2022-10-02T11:04:47.681Z,1.1
2022-10-02T11:10:44.202Z,1
2022-10-02T11:16:38.997Z,1.1
2022-10-02T11:22:36.840Z,1.1
2022-10-02T11:28:32.568Z,1
2022-10-02T11:34:28.318Z,1
2022-10-02T11:40:28.964Z,1.1
2022-10-02T11:46:20.559Z,1
2022-10-02T11:52:15.984Z,1
2022-10-02T11:58:06.157Z,1.3
2022-10-02T12:04:03.355Z,0.9
2022-10-02T12:09:54.353Z,1.1
2022-10-02T12:15:43.258Z,1.2
2022-10-02T12:21:31.800Z,1.1
2022-10-02T12:27:17.521Z,1.1
2022-10-02T12:33:10.912Z,1.1
2022-10-02T12:39:00.715Z,1.3
2022-10-02T12:44:54.907Z,1.1
2022-10-02T12:50:48.555Z,1.3
2022-10-02T12:56:47.490Z,1.3
2022-10-02T13:03:01.109Z,1.4
2022-10-02T13:08:55.391Z,1.3
2022-10-02T13:14:47.316Z,1.3
2022-10-02T13:20:37.514Z,1.8
2022-10-02T13:26:24.930Z,1.6
2022-10-02T13:32:19.131Z,1.6
2022-10-02T13:38:08.242Z,1.7
2022-10-02T13:44:00.446Z,1.9
2022-10-02T13:49:50.562Z,2
2022-10-02T13:55:36.152Z,1.8
2022-10-02T14:01:32.147Z,2.1
2022-10-02T14:07:24.048Z,2
2022-10-02T14:13:16.355Z,1.8
2022-10-02T14:19:09.534Z,2.1
2022-10-02T14:25:06.399Z,1.9
2022-10-02T14:30:54.821Z,1.9
2022-10-02T14:36:41.564Z,2
2022-10-02T14:42:36.411Z,2.1
2022-10-02T14:48:30.003Z,2.1
2022-10-02T14:54:28.278Z,2
2022-10-02T15:00:22.542Z,2.2
2022-10-02T15:06:12.507Z,2.1
2022-10-02T15:12:02.415Z,2.2
2022-10-02T15:17:50.867Z,2.5
2022-10-02T15:23:51.253Z,2.5
2022-10-02T15:29:40.119Z,2.3
2022-10-02T15:35:30.267Z,2.3
2022-10-02T15:41:29.627Z,2.6
2022-10-02T15:47:20.093Z,2.4
2022-10-02T15:53:11.483Z,2.5
2022-10-02T15:59:07.733Z,2.4
2022-10-02T16:04:57.738Z,2.6
2022-10-02T16:10:46.821Z,2.6
2022-10-02T16:16:47.769Z,2.6
2022-10-02T16:22:37.479Z,3.1
2022-10-02T16:28:28.156Z,2.4
2022-10-02T16:34:18.550Z,2.6
2022-10-02T16:40:04.979Z,2.6
2022-10-02T16:45:57.476Z,2.9
2022-10-02T16:51:48.408Z,2.8
2022-10-02T16:57:37.300Z,2.9
2022-10-02T17:03:27.365Z,3.2
2022-10-02T17:09:15.231Z,3.4
2022-10-02T17:15:04.163Z,3.4
2022-10-02T17:20:49.923Z,3.2
2022-10-02T17:26:39.083Z,3.6
2022-10-02T17:32:35.463Z,3.4
2022-10-02T17:38:39.170Z,3.2
2022-10-02T17:44:29.983Z,3.5
2022-10-02T17:50:22.437Z,3.5
2022-10-02T17:56:17.157Z,3.6
2022-10-02T18:02:07.308Z,3.6
2022-10-02T18:07:58.249Z,3.9
2022-10-02T18:14:00.587Z,4
2022-10-02T18:19:52.803Z,4.1
2022-10-02T18:25:44.890Z,4.3
2022-10-02T18:32:02.475Z,4.1
2022-10-02T18:37:53.380Z,4.5
2022-10-02T18:43:47.769Z,4.4
2022-10-02T18:49:39.106Z,4.6
2022-10-02T18:55:35.054Z,4.4
2022-10-02T19:01:27.446Z,4.5
2022-10-02T19:07:15.523Z,4.5
2022-10-02T19:13:02.286Z,4.7
2022-10-02T19:18:45.571Z,5
2022-10-02T19:24:30.173Z,5
2022-10-02T19:30:23.490Z,5.3
2022-10-02T19:36:07.585Z,5.4
2022-10-02T19:41:55.686Z,5.5
2022-10-02T19:47:40.508Z,5.3
2022-10-02T19:53:26.515Z,5.1
2022-10-02T19:59:14.532Z,5.4
2022-10-02T20:05:00.108Z,5.8
2022-10-02T20:10:45.242Z,5.4
2022-10-02T20:16:28.918Z,5.7
2022-10-02T20:22:17.051Z,5.3
2022-10-02T20:28:05.257Z,4.9
2022-10-02T20:33:51.413Z,5.4
2022-10-02T20:39:37.896Z,4.9
2022-10-02T20:45:23.221Z,5
2022-10-02T20:51:10.651Z,4.9
2022-10-02T20:57:02.528Z,5
2022-10-02T21:02:55.742Z,4.8
2022-10-02T21:08:51.141Z,4.3
2022-10-02T21:14:55.004Z,4.6
2022-10-02T21:20:53.894Z,4.4
2022-10-02T21:26:48.993Z,4.3
2022-10-02T21:32:43.287Z,4.3
2022-10-02T21:38:50.096Z,4.3
2022-10-02T21:44:47.250Z,4.1
2022-10-02T21:50:44.652Z,4
2022-10-02T21:56:47.622Z,3.9
2022-10-02T22:02:52.403Z,4.1
2022-10-02T22:08:41.179Z,4
2022-10-02T22:14:29.502Z,4.1
2022-10-02T22:20:22.064Z,3.8
2022-10-02T22:26:14.316Z,3.7
2022-10-02T22:32:10.021Z,3.6
2022-10-02T22:38:03.557Z,3.7
2022-10-02T22:43:50.470Z,3.6
2022-10-02T22:49:36.553Z,3.9
2022-10-02T22:55:21.132Z,3.5
2022-10-02T23:01:09.965Z,3.1
2022-10-02T23:06:56.938Z,3.2
2022-10-02T23:12:45.090Z,3.3
2022-10-02T23:18:36.395Z,3.1
2022-10-02T23:24:32.303Z,3.1
2022-10-02T23:30:20.000Z,3
2022-10-02T23:36:05.879Z,2.9
2022-10-02T23:41:53.305Z,3.3
2022-10-02T23:47:42.592Z,3.1
2022-10-02T23:53:36.432Z,3.2
2022-10-02T23:59:29.059Z,2.9
